createdAt,value
2023-02-12T00:00:30.149Z,33.80
2023-02-12T00:04:32.825Z,31.37
2023-02-12T00:08:37.709Z,31.10
2023-02-12T00:12:40.424Z,31.47
2023-02-12T00:16:43.101Z,32.67
2023-02-12T00:20:45.847Z,31.03
2023-02-12T00:24:50.141Z,30.87
2023-02-12T00:28:53.416Z,31.10
2023-02-12T00:32:56.383Z,30.17
2023-02-12T00:36:59.087Z,29.30
2023-02-12T00:41:03.156Z,29.53
2023-02-12T00:45:06.671Z,28.63
2023-02-12T00:49:11.407Z,31.47
2023-02-12T00:53:14.229Z,29.93
2023-02-12T00:57:19.985Z,35.10
2023-02-12T01:01:23.094Z,30.33
2023-02-12T01:05:26.157Z,30.83
2023-02-12T01:09:28.897Z,32.40
2023-02-12T01:13:34.312Z,31.23
2023-02-12T01:17:37.143Z,32.07
2023-02-12T01:21:39.933Z,32.03
2023-02-12T01:25:42.895Z,29.10
2023-02-12T01:29:46.985Z,34.07
2023-02-12T01:33:50.220Z,36.53
2023-02-12T01:37:52.959Z,33.90
2023-02-12T01:41:55.666Z,33.37
2023-02-12T01:46:01.570Z,31.17
2023-02-12T01:50:04.745Z,31.93
2023-02-12T01:54:08.886Z,32.37
2023-02-12T01:58:11.644Z,30.10
2023-02-12T02:02:15.904Z,32.33
2023-02-12T02:06:22.279Z,30.47
2023-02-12T02:10:25.041Z,30.93
2023-02-12T02:14:32.515Z,30.73
2023-02-12T02:18:39.156Z,30.93
2023-02-12T02:22:45.083Z,33.30
2023-02-12T02:27:18.448Z,33.50
2023-02-12T02:31:25.241Z,29.60
2023-02-12T02:35:32.226Z,32.00
2023-02-12T02:39:38.797Z,33.23
2023-02-12T02:43:45.339Z,28.90
2023-02-12T02:47:52.409Z,30.53
2023-02-12T02:51:58.982Z,31.33
2023-02-12T02:56:03.828Z,32.40
2023-02-12T03:00:14.209Z,31.93
2023-02-12T03:04:21.114Z,31.00
2023-02-12T03:08:25.275Z,30.97
2023-02-12T03:12:32.873Z,31.93
2023-02-12T03:16:38.414Z,31.90
2023-02-12T03:20:44.823Z,31.53
2023-02-12T03:24:51.222Z,32.03
2023-02-12T03:28:54.457Z,31.80
2023-02-12T03:33:05.351Z,33.77
2023-02-12T03:37:14.426Z,34.63
2023-02-12T03:41:22.145Z,32.93
2023-02-12T03:45:33.600Z,31.33
2023-02-12T03:49:43.250Z,32.43
2023-02-12T03:53:47.487Z,33.53
2023-02-12T03:57:53.786Z,32.83
2023-02-12T04:01:59.438Z,31.13
2023-02-12T04:06:02.463Z,34.33
2023-02-12T04:10:07.975Z,32.17
2023-02-12T04:14:16.897Z,33.37
2023-02-12T04:18:22.537Z,33.27
2023-02-12T04:22:33.511Z,35.83
2023-02-12T04:26:40.566Z,32.47
2023-02-12T04:30:46.932Z,33.80
2023-02-12T04:34:53.382Z,33.77
2023-02-12T04:39:00.098Z,32.30
2023-02-12T04:43:04.257Z,32.70
2023-02-12T04:47:11.681Z,35.00
2023-02-12T04:51:14.657Z,33.53
2023-02-12T04:55:17.770Z,35.03
2023-02-12T04:59:23.233Z,31.73
2023-02-12T05:03:26.256Z,34.73
2023-02-12T05:07:29.219Z,33.90
2023-02-12T05:11:32.258Z,34.57
2023-02-12T05:15:36.325Z,35.73
2023-02-12T05:19:39.279Z,35.33
2023-02-12T05:23:42.393Z,36.13
2023-02-12T05:27:45.098Z,34.33
2023-02-12T05:31:49.502Z,33.23
2023-02-12T05:35:52.650Z,31.30
2023-02-12T05:39:55.477Z,34.50
2023-02-12T05:43:58.174Z,33.37
2023-02-12T05:48:05.292Z,31.53
2023-02-12T05:52:08.013Z,37.67
2023-02-12T05:56:14.986Z,33.27
2023-02-12T06:00:18.337Z,34.60
2023-02-12T06:04:24.533Z,35.60
2023-02-12T06:08:27.697Z,33.97
2023-02-12T06:12:30.393Z,31.80
2023-02-12T06:16:34.156Z,32.50
2023-02-12T06:20:39.702Z,32.57
2023-02-12T06:24:42.712Z,37.40
2023-02-12T06:28:48.921Z,34.33
2023-02-12T06:32:53.770Z,33.00
2023-02-12T06:36:58.659Z,39.83
2023-02-12T06:41:02.862Z,36.93
2023-02-12T06:45:08.212Z,35.83
2023-02-12T06:49:14.191Z,36.90
2023-02-12T06:53:20.416Z,35.23
2023-02-12T06:57:23.282Z,36.03
2023-02-12T07:01:28.245Z,36.73
2023-02-12T07:05:31.058Z,35.13
2023-02-12T07:09:35.150Z,36.60
2023-02-12T07:13:38.519Z,37.23
2023-02-12T07:17:41.531Z,39.93
2023-02-12T07:21:44.302Z,38.33
2023-02-12T07:25:57.503Z,37.33
2023-02-12T07:30:00.344Z,42.43
2023-02-12T07:34:03.086Z,45.27
2023-02-12T07:38:05.795Z,49.80
2023-02-12T07:42:09.874Z,46.17
2023-02-12T07:46:14.457Z,43.93
2023-02-12T07:50:18.039Z,46.97
2023-02-12T07:54:21.592Z,43.13
2023-02-12T07:58:29.194Z,41.40
2023-02-12T08:02:32.278Z,45.73
2023-02-12T08:06:37.553Z,42.43
2023-02-12T08:10:40.230Z,44.00
2023-02-12T08:14:44.271Z,44.87
2023-02-12T08:18:47.520Z,41.03
2023-02-12T08:22:50.529Z,40.97
2023-02-12T08:26:53.580Z,42.87
2023-02-12T08:31:02.618Z,42.60
2023-02-12T08:35:05.824Z,38.57
2023-02-12T08:39:10.693Z,41.57
2023-02-12T08:43:13.429Z,46.47
2023-02-12T08:47:17.467Z,41.97
2023-02-12T08:51:21.685Z,41.77
2023-02-12T08:55:24.383Z,38.17
2023-02-12T08:59:27.727Z,39.13
2023-02-12T09:03:32.167Z,39.60
2023-02-12T09:07:35.665Z,39.03
2023-02-12T09:11:38.423Z,39.63
2023-02-12T09:15:46.278Z,41.73
2023-02-12T09:19:50.327Z,38.27
2023-02-12T09:23:54.849Z,37.70
2023-02-12T09:27:57.748Z,31.63
2023-02-12T09:32:02.581Z,33.23
2023-02-12T09:36:08.649Z,40.67
2023-02-12T09:40:18.279Z,40.60
2023-02-12T09:44:24.692Z,40.03
2023-02-12T09:48:45.916Z,41.53
2023-02-12T09:52:50.546Z,42.07
2023-02-12T09:56:56.395Z,37.33
2023-02-12T10:00:59.180Z,38.70
2023-02-12T10:05:02.828Z,39.43
2023-02-12T10:09:20.424Z,35.17
2023-02-12T10:13:39.522Z,34.77
2023-02-12T10:17:45.266Z,35.57
2023-02-12T10:21:55.107Z,37.00
2023-02-12T10:26:00.799Z,37.17
2023-02-12T10:30:06.021Z,35.13
2023-02-12T10:34:16.843Z,41.70
2023-02-12T10:38:21.980Z,40.30
2023-02-12T10:42:35.295Z,42.50
2023-02-12T10:46:38.337Z,44.07
2023-02-12T10:50:57.233Z,39.70
2023-02-12T10:54:59.900Z,36.07
2023-02-12T11:03:35.946Z,29.40
2023-02-12T11:07:50.913Z,27.70
2023-02-12T11:11:53.712Z,28.13
2023-02-12T11:15:56.700Z,38.77
2023-02-12T11:20:09.759Z,40.70
2023-02-12T11:24:37.816Z,37.93
2023-02-12T11:28:40.732Z,38.10
2023-02-12T11:32:44.212Z,38.60
2023-02-12T11:36:49.994Z,33.07
2023-02-12T11:40:59.902Z,33.43
2023-02-12T11:45:03.972Z,36.00
2023-02-12T11:49:10.245Z,38.30
2023-02-12T11:53:23.282Z,34.90
2023-02-12T11:57:40.003Z,34.53
2023-02-12T12:01:42.894Z,31.97
2023-02-12T12:05:49.365Z,30.03
2023-02-12T12:09:59.419Z,32.90
2023-02-12T12:14:05.234Z,30.97
2023-02-12T12:18:33.466Z,31.43
2023-02-12T12:22:43.615Z,30.97
2023-02-12T12:26:50.952Z,33.50
2023-02-12T12:31:07.680Z,34.30
2023-02-12T12:35:12.291Z,31.40
2023-02-12T12:39:27.508Z,32.27
2023-02-12T12:43:41.301Z,33.63
2023-02-12T12:47:54.513Z,38.27
2023-02-12T12:52:14.111Z,36.30
2023-02-12T12:56:36.538Z,41.37
2023-02-12T13:01:00.122Z,34.83
2023-02-12T13:05:48.553Z,36.47
2023-02-12T13:10:14.685Z,38.20
2023-02-12T13:14:32.954Z,38.83
2023-02-12T13:18:45.819Z,40.43
2023-02-12T13:22:55.652Z,40.03
2023-02-12T13:27:05.111Z,37.23
2023-02-12T13:31:31.807Z,39.93
2023-02-12T13:35:43.382Z,42.03
2023-02-12T13:39:48.339Z,42.03
2023-02-12T13:44:00.915Z,38.13
2023-02-12T13:48:26.634Z,34.10
2023-02-12T13:52:36.454Z,35.90
2023-02-12T13:56:43.504Z,39.00
2023-02-12T14:00:58.975Z,37.53
2023-02-12T14:05:03.150Z,34.97
2023-02-12T14:09:12.320Z,37.37
2023-02-12T14:13:21.176Z,37.40
2023-02-12T14:17:53.670Z,34.43
2023-02-12T14:21:56.424Z,38.07
2023-02-12T14:26:02.799Z,33.53
2023-02-12T14:30:25.927Z,33.03
2023-02-12T14:34:50.049Z,35.87
2023-02-12T14:39:00.505Z,33.23
2023-02-12T14:43:20.251Z,37.73
2023-02-12T14:47:53.764Z,36.03
2023-02-12T14:51:59.785Z,35.10
2023-02-12T14:56:04.751Z,30.50
2023-02-12T15:00:23.009Z,31.27
2023-02-12T15:04:27.846Z,34.27
2023-02-12T15:08:35.936Z,31.97
2023-02-12T15:12:41.294Z,33.70
2023-02-12T15:16:53.124Z,31.50
2023-02-12T15:21:01.864Z,30.27
2023-02-12T15:25:24.623Z,31.60
2023-02-12T15:29:29.671Z,29.60
2023-02-12T15:33:35.200Z,32.83
2023-02-12T15:37:38.468Z,32.37
2023-02-12T15:41:42.026Z,31.23
2023-02-12T15:45:51.513Z,31.07
2023-02-12T15:50:00.526Z,29.07
2023-02-12T15:54:06.596Z,29.77
2023-02-12T15:58:21.639Z,30.83
2023-02-12T16:02:28.449Z,31.20
2023-02-12T16:06:37.651Z,27.83
2023-02-12T16:10:43.935Z,30.60
2023-02-12T16:14:49.436Z,30.47
2023-02-12T16:19:19.640Z,30.47
2023-02-12T16:23:27.746Z,33.00
2023-02-12T16:27:32.023Z,45.63
2023-02-12T16:31:35.605Z,44.47
2023-02-12T16:35:38.749Z,39.10
2023-02-12T16:40:20.746Z,56.80
2023-02-12T16:44:31.574Z,86.63
2023-02-12T16:48:39.420Z,71.97
2023-02-12T16:52:42.726Z,74.30
2023-02-12T16:56:48.169Z,152.13
2023-02-12T17:00:51.016Z,97.97
2023-02-12T17:04:56.811Z,66.37
2023-02-12T17:09:01.945Z,40.00
2023-02-12T17:13:06.243Z,40.63
2023-02-12T17:17:09.590Z,52.43
2023-02-12T17:21:21.381Z,50.40
2023-02-12T17:25:25.659Z,44.63
2023-02-12T17:29:30.724Z,39.63
2023-02-12T17:33:33.821Z,39.63
2023-02-12T17:37:36.594Z,35.90
2023-02-12T17:41:40.596Z,41.60
2023-02-12T17:45:45.588Z,38.03
2023-02-12T17:49:48.403Z,33.10
2023-02-12T17:53:51.272Z,30.17
2023-02-12T17:57:54.352Z,28.77
2023-02-12T18:02:00.507Z,28.00
2023-02-12T18:06:03.672Z,29.37
2023-02-12T18:10:07.535Z,28.67
2023-02-12T18:14:12.318Z,25.33
2023-02-12T18:18:17.932Z,25.83
2023-02-12T18:22:21.193Z,26.20
2023-02-12T18:26:24.543Z,27.67
2023-02-12T18:30:27.372Z,28.70
2023-02-12T18:34:31.526Z,31.80
2023-02-12T18:38:34.988Z,35.43
2023-02-12T18:42:37.739Z,35.73
2023-02-12T18:46:40.742Z,33.67
2023-02-12T18:50:44.916Z,42.17
2023-02-12T18:54:47.675Z,40.70
2023-02-12T18:58:55.978Z,47.60
2023-02-12T19:02:58.792Z,46.67
2023-02-12T19:07:03.248Z,44.40
2023-02-12T19:11:06.899Z,46.47
2023-02-12T19:15:10.586Z,57.90
2023-02-12T19:19:14.190Z,59.43
2023-02-12T19:23:18.360Z,49.10
2023-02-12T19:27:21.137Z,22.97
2023-02-12T19:31:28.704Z,32.17
2023-02-12T19:35:31.964Z,37.50
2023-02-12T19:39:36.093Z,39.43
2023-02-12T19:43:39.339Z,42.53
2023-02-12T19:47:42.378Z,42.63
2023-02-12T19:51:48.198Z,42.20
2023-02-12T19:55:52.658Z,42.83
2023-02-12T19:59:55.490Z,40.30
2023-02-12T20:03:58.599Z,40.53
2023-02-12T20:08:01.787Z,40.43
2023-02-12T20:12:07.100Z,38.30
2023-02-12T20:16:11.727Z,33.73
2023-02-12T20:20:15.298Z,32.57
2023-02-12T20:24:20.935Z,37.60
2023-02-12T20:28:25.862Z,41.07
2023-02-12T20:32:28.958Z,40.57
2023-02-12T20:36:33.368Z,41.97
2023-02-12T20:40:36.364Z,42.00
2023-02-12T20:44:40.483Z,43.37
2023-02-12T20:48:43.532Z,43.53
2023-02-12T20:52:46.255Z,39.70
2023-02-12T20:56:50.202Z,39.43
2023-02-12T21:00:57.057Z,41.00
2023-02-12T21:04:59.962Z,38.97
2023-02-12T21:09:02.726Z,36.07
2023-02-12T21:13:05.783Z,37.53
2023-02-12T21:17:09.929Z,35.30
2023-02-12T21:21:14.387Z,35.33
2023-02-12T21:25:17.572Z,32.30
2023-02-12T21:29:21.023Z,28.23
2023-02-12T21:33:25.310Z,29.57
2023-02-12T21:37:28.074Z,28.83
2023-02-12T21:41:32.144Z,31.57
2023-02-12T21:45:34.988Z,29.90
2023-02-12T21:49:39.353Z,29.10
2023-02-12T21:53:42.112Z,27.07
2023-02-12T21:57:45.037Z,27.13
2023-02-12T22:01:49.115Z,28.33
2023-02-12T22:05:53.416Z,28.33
2023-02-12T22:09:57.045Z,29.53
2023-02-12T22:14:00.030Z,29.67
2023-02-12T22:18:02.877Z,29.77
2023-02-12T22:22:07.187Z,31.27
2023-02-12T22:26:11.428Z,30.73
2023-02-12T22:30:14.620Z,30.30
2023-02-12T22:34:19.123Z,28.30
2023-02-12T22:38:25.505Z,29.13
2023-02-12T22:42:28.606Z,29.37
2023-02-12T22:46:31.385Z,27.87
2023-02-12T22:50:34.116Z,29.57
2023-02-12T22:54:38.414Z,33.17
2023-02-12T22:58:41.332Z,27.40
2023-02-12T23:02:43.995Z,29.00
2023-02-12T23:06:47.512Z,25.67
2023-02-12T23:10:51.634Z,23.83
2023-02-12T23:14:54.357Z,25.00
2023-02-12T23:18:57.757Z,28.93
2023-02-12T23:23:00.473Z,26.73
2023-02-12T23:27:04.583Z,32.30
2023-02-12T23:31:07.720Z,39.47
2023-02-12T23:35:10.441Z,38.10
2023-02-12T23:39:14.004Z,41.10
2023-02-12T23:43:21.186Z,34.87
2023-02-12T23:47:25.912Z,37.90
2023-02-12T23:51:28.602Z,40.30
2023-02-12T23:55:31.370Z,33.03
2023-02-12T23:59:35.653Z,36.77
